createdAt,value
2023-03-20T00:00:10.110Z,99.99
2023-03-20T00:01:09.362Z,99.99
2023-03-20T00:02:09.384Z,99.99
2023-03-20T00:03:10.144Z,99.99
2023-03-20T00:04:10.631Z,99.99
2023-03-20T00:05:09.396Z,99.99
2023-03-20T00:06:09.406Z,99.99
2023-03-20T00:07:09.674Z,99.99
2023-03-20T00:08:10.192Z,99.99
2023-03-20T00:09:09.586Z,99.99
2023-03-20T00:10:10.705Z,99.99
2023-03-20T00:11:09.237Z,99.99
2023-03-20T00:12:09.232Z,99.99
2023-03-20T00:13:10.206Z,99.99
2023-03-20T00:14:10.109Z,99.99
2023-03-20T00:15:09.180Z,99.99
2023-03-20T00:16:10.203Z,99.99
2023-03-20T00:17:09.165Z,99.99
2023-03-20T00:18:09.199Z,99.99
2023-03-20T00:19:10.048Z,99.99
2023-03-20T00:20:09.282Z,99.99
2023-03-20T00:21:09.127Z,99.99
2023-03-20T00:22:09.098Z,99.99
2023-03-20T00:23:10.270Z,99.99
2023-03-20T00:24:09.195Z,99.99
2023-03-20T00:25:09.078Z,99.99
2023-03-20T00:26:09.977Z,99.99
2023-03-20T00:27:09.030Z,99.99
2023-03-20T00:28:09.102Z,99.99
2023-03-20T00:29:09.218Z,99.99
2023-03-20T00:30:09.089Z,99.99
2023-03-20T00:31:09.001Z,99.99
2023-03-20T00:32:09.605Z,99.99
2023-03-20T00:33:10.009Z,99.99
2023-03-20T00:34:09.841Z,99.99
2023-03-20T00:35:09.401Z,99.99
2023-03-20T00:36:08.962Z,99.99
2023-03-20T00:37:08.958Z,99.99
2023-03-20T00:38:08.919Z,99.99
2023-03-20T00:39:09.020Z,99.99
2023-03-20T00:40:08.954Z,99.99
2023-03-20T00:41:08.939Z,99.99
2023-03-20T00:42:08.821Z,99.99
2023-03-20T00:43:08.825Z,99.99
2023-03-20T00:44:08.904Z,99.99
2023-03-20T00:45:08.919Z,99.99
2023-03-20T00:46:08.785Z,99.99
2023-03-20T00:47:08.803Z,99.99
2023-03-20T00:48:09.916Z,99.99
2023-03-20T00:49:08.774Z,99.99
2023-03-20T00:50:08.864Z,99.99
2023-03-20T00:51:09.636Z,99.99
2023-03-20T00:52:08.733Z,99.99
2023-03-20T00:53:08.728Z,99.91
2023-03-20T00:54:08.717Z,99.70
2023-03-20T00:55:08.679Z,99.50
2023-03-20T00:56:08.669Z,99.44
2023-03-20T00:57:08.664Z,99.44
2023-03-20T00:58:08.636Z,99.54
2023-03-20T00:59:09.544Z,99.34
2023-03-20T01:00:09.794Z,99.19
2023-03-20T01:01:08.827Z,98.99
2023-03-20T01:02:08.648Z,98.68
2023-03-20T01:03:08.630Z,98.47
2023-03-20T01:04:09.408Z,98.27
2023-03-20T01:05:08.608Z,98.07
2023-03-20T01:06:09.730Z,97.96
2023-03-20T01:07:08.517Z,97.91
2023-03-20T01:08:08.516Z,97.91
2023-03-20T01:09:08.475Z,97.91
2023-03-20T01:10:09.477Z,98.00
2023-03-20T01:11:09.428Z,97.95
2023-03-20T01:12:10.438Z,97.95
2023-03-20T01:13:08.489Z,98.05
2023-03-20T01:14:08.558Z,97.95
2023-03-20T01:15:08.401Z,97.85
2023-03-20T01:16:08.649Z,97.99
2023-03-20T01:17:08.687Z,98.10
2023-03-20T01:18:08.411Z,98.10
2023-03-20T01:19:08.347Z,98.10
2023-03-20T01:20:08.348Z,98.25
2023-03-20T01:21:08.350Z,98.25
2023-03-20T01:22:08.350Z,98.25
2023-03-20T01:23:08.672Z,98.35
2023-03-20T01:24:08.290Z,98.45
2023-03-20T01:25:09.439Z,98.60
2023-03-20T01:26:09.335Z,98.80
2023-03-20T01:27:08.393Z,99.01
2023-03-20T01:28:08.251Z,99.11
2023-03-20T01:29:08.309Z,99.11
2023-03-20T01:30:08.369Z,99.11
2023-03-20T01:31:08.217Z,99.11
2023-03-20T01:32:08.251Z,99.11
2023-03-20T01:33:09.235Z,99.11
2023-03-20T01:34:08.200Z,99.26
2023-03-20T01:35:08.162Z,99.47
2023-03-20T01:36:09.168Z,99.57
2023-03-20T01:37:08.192Z,99.77
2023-03-20T01:38:08.325Z,99.88
2023-03-20T01:39:08.159Z,99.99
2023-03-20T01:40:08.124Z,99.99
2023-03-20T01:41:08.056Z,99.99
2023-03-20T01:42:08.114Z,99.99
2023-03-20T01:43:08.103Z,99.99
2023-03-20T01:44:08.051Z,99.99
2023-03-20T01:45:08.060Z,99.99
2023-03-20T01:46:08.092Z,99.99
2023-03-20T01:47:07.984Z,99.99
2023-03-20T01:48:08.235Z,99.99
2023-03-20T01:49:08.080Z,99.99
2023-03-20T01:50:08.002Z,99.99
2023-03-20T01:51:07.970Z,99.99
2023-03-20T01:52:07.993Z,99.99
2023-03-20T01:53:07.948Z,99.99
2023-03-20T01:54:07.948Z,99.99
2023-03-20T01:55:09.114Z,99.99
2023-03-20T01:56:07.957Z,99.99
2023-03-20T01:57:07.866Z,99.99
2023-03-20T01:58:08.006Z,99.99
2023-03-20T01:59:07.897Z,99.99
2023-03-20T02:00:07.858Z,99.99
2023-03-20T02:01:08.398Z,99.99
2023-03-20T02:02:07.798Z,99.99
2023-03-20T02:03:07.821Z,99.99
2023-03-20T02:04:08.771Z,99.99
2023-03-20T02:05:07.873Z,99.99
2023-03-20T02:06:07.809Z,99.99
2023-03-20T02:07:07.881Z,99.99
2023-03-20T02:08:08.892Z,99.99
2023-03-20T02:09:08.303Z,99.99
2023-03-20T02:10:07.748Z,99.99
2023-03-20T02:11:07.839Z,99.99
2023-03-20T02:12:07.719Z,99.99
2023-03-20T02:13:07.685Z,99.99
2023-03-20T02:14:07.810Z,99.99
2023-03-20T02:15:07.631Z,99.99
2023-03-20T02:16:07.648Z,99.99
2023-03-20T02:17:07.796Z,99.99
2023-03-20T02:18:07.614Z,99.99
2023-03-20T02:19:07.640Z,99.99
2023-03-20T02:20:08.848Z,99.99
2023-03-20T02:21:07.592Z,99.99
2023-03-20T02:22:07.596Z,99.99
2023-03-20T02:23:07.545Z,99.99
2023-03-20T02:24:07.575Z,99.99
2023-03-20T02:25:07.528Z,99.99
2023-03-20T02:26:07.530Z,99.99
2023-03-20T02:27:07.501Z,99.99
2023-03-20T02:28:07.514Z,99.99
2023-03-20T02:29:07.542Z,99.99
2023-03-20T02:30:08.322Z,99.99
2023-03-20T02:31:07.465Z,99.99
2023-03-20T02:32:07.432Z,99.99
2023-03-20T02:33:07.458Z,99.99
2023-03-20T02:34:07.404Z,99.99
2023-03-20T02:35:07.430Z,99.99
2023-03-20T02:36:08.289Z,99.99
2023-03-20T02:37:07.395Z,99.99
2023-03-20T02:38:07.382Z,99.99
2023-03-20T02:39:07.343Z,99.99
2023-03-20T02:40:07.374Z,99.99
2023-03-20T02:41:08.312Z,99.99
2023-03-20T02:42:07.317Z,99.99
2023-03-20T02:43:07.317Z,99.99
2023-03-20T02:44:07.273Z,99.99
2023-03-20T02:45:07.354Z,99.99
2023-03-20T02:46:07.320Z,99.99
2023-03-20T02:47:07.314Z,99.99
2023-03-20T02:48:07.242Z,99.99
2023-03-20T02:49:07.267Z,99.99
2023-03-20T02:50:07.205Z,99.99
2023-03-20T02:51:07.177Z,99.99
2023-03-20T02:52:07.172Z,99.99
2023-03-20T02:53:07.249Z,99.99
2023-03-20T02:54:07.293Z,99.99
2023-03-20T02:55:07.254Z,99.99
2023-03-20T02:56:08.372Z,99.99
2023-03-20T02:57:07.116Z,99.99
2023-03-20T02:58:07.095Z,99.99
2023-03-20T02:59:07.117Z,99.99
2023-03-20T03:00:07.134Z,99.99
2023-03-20T03:01:07.090Z,99.99
2023-03-20T03:02:07.390Z,99.99
2023-03-20T03:03:07.017Z,99.99
2023-03-20T03:04:07.038Z,99.99
2023-03-20T03:05:07.194Z,99.99
2023-03-20T03:06:07.031Z,99.99
2023-03-20T03:07:07.078Z,99.99
2023-03-20T03:08:07.122Z,99.99
2023-03-20T03:09:06.998Z,99.99
2023-03-20T03:10:06.989Z,99.99
2023-03-20T03:11:07.135Z,99.99
2023-03-20T03:12:07.099Z,99.99
2023-03-20T03:13:06.891Z,99.99
2023-03-20T03:14:06.892Z,99.99
2023-03-20T03:15:08.090Z,99.99
2023-03-20T03:16:06.965Z,99.99
2023-03-20T03:17:06.908Z,99.99
2023-03-20T03:18:06.906Z,99.99
2023-03-20T03:19:06.857Z,99.99
2023-03-20T03:20:06.828Z,99.99
2023-03-20T03:21:06.852Z,99.99
2023-03-20T03:22:06.773Z,99.99
2023-03-20T03:23:06.822Z,99.99
2023-03-20T03:24:06.844Z,99.99
2023-03-20T03:25:06.744Z,99.99
2023-03-20T03:26:07.543Z,99.99
2023-03-20T03:27:06.803Z,99.99
2023-03-20T03:28:06.799Z,99.99
2023-03-20T03:29:06.846Z,99.99
2023-03-20T03:30:06.765Z,99.99
2023-03-20T03:31:07.637Z,99.99
2023-03-20T03:32:07.621Z,99.99
2023-03-20T03:33:06.833Z,99.99
2023-03-20T03:34:06.704Z,99.99
2023-03-20T03:35:06.742Z,99.99
2023-03-20T03:36:07.674Z,99.99
2023-03-20T03:37:06.642Z,99.99
2023-03-20T03:38:06.763Z,99.99
2023-03-20T03:39:06.596Z,99.99
2023-03-20T03:40:06.617Z,99.99
2023-03-20T03:41:06.627Z,99.99
2023-03-20T03:42:06.566Z,99.99
2023-03-20T03:43:07.460Z,99.99
2023-03-20T03:44:06.516Z,99.99
2023-03-20T03:45:06.495Z,99.99
2023-03-20T03:46:07.492Z,99.99
2023-03-20T03:47:06.602Z,99.99
2023-03-20T03:48:06.491Z,99.99
2023-03-20T03:49:06.447Z,99.99
2023-03-20T03:50:06.447Z,99.99
2023-03-20T03:51:06.485Z,99.99
2023-03-20T03:52:06.537Z,99.99
2023-03-20T03:53:06.435Z,99.99
2023-03-20T03:54:06.390Z,99.99
2023-03-20T03:55:06.397Z,99.99
2023-03-20T03:56:06.435Z,99.99
2023-03-20T03:57:06.377Z,99.99
2023-03-20T03:58:06.389Z,99.99
2023-03-20T03:59:06.377Z,99.99
2023-03-20T04:00:06.341Z,99.99
2023-03-20T04:01:06.280Z,99.99
2023-03-20T04:02:06.453Z,99.99
2023-03-20T04:03:06.633Z,99.99
2023-03-20T04:04:06.270Z,99.99
2023-03-20T04:05:07.395Z,99.99
2023-03-20T04:06:07.288Z,99.99
2023-03-20T04:07:06.332Z,99.99
2023-03-20T04:08:06.296Z,99.99
2023-03-20T04:09:07.019Z,99.99
2023-03-20T04:10:06.364Z,99.99
2023-03-20T04:11:06.188Z,99.99
2023-03-20T04:12:06.174Z,99.99
2023-03-20T04:13:06.357Z,99.99
2023-03-20T04:14:06.145Z,99.99
2023-03-20T04:15:06.577Z,99.99
2023-03-20T04:16:06.189Z,99.99
2023-03-20T04:17:06.313Z,99.99
2023-03-20T04:18:06.119Z,99.99
2023-03-20T04:19:06.095Z,99.99
2023-03-20T04:20:06.088Z,99.99
2023-03-20T04:21:06.881Z,99.99
2023-03-20T04:22:06.630Z,99.99
2023-03-20T04:23:06.089Z,99.99
2023-03-20T04:24:06.053Z,99.99
2023-03-20T04:25:07.011Z,99.99
2023-03-20T04:26:06.911Z,99.99
2023-03-20T04:27:06.889Z,99.99
2023-03-20T04:28:06.079Z,99.99
2023-03-20T04:29:06.039Z,99.99
2023-03-20T04:30:07.042Z,99.99
2023-03-20T04:31:05.977Z,99.99
2023-03-20T04:32:05.994Z,99.99
2023-03-20T04:33:05.907Z,99.99
2023-03-20T04:34:05.911Z,99.99
2023-03-20T04:35:05.955Z,99.99
2023-03-20T04:36:06.763Z,99.99
2023-03-20T04:37:06.884Z,99.88
2023-03-20T04:38:06.843Z,99.67
2023-03-20T04:39:05.869Z,99.37
2023-03-20T04:40:05.891Z,99.05
2023-03-20T04:41:06.396Z,98.85
2023-03-20T04:42:05.791Z,98.85
2023-03-20T04:43:05.791Z,98.75
2023-03-20T04:44:05.753Z,98.65
2023-03-20T04:45:05.766Z,98.65
2023-03-20T04:46:05.959Z,98.65
2023-03-20T04:47:06.950Z,98.65
2023-03-20T04:48:05.821Z,98.69
2023-03-20T04:49:05.746Z,98.69
2023-03-20T04:50:06.673Z,98.79
2023-03-20T04:51:05.835Z,98.79
2023-03-20T04:52:05.667Z,98.79
2023-03-20T04:53:05.706Z,98.90
2023-03-20T04:54:05.656Z,98.94
2023-03-20T04:55:05.764Z,98.94
2023-03-20T04:56:06.593Z,99.05
2023-03-20T04:57:06.497Z,99.05
2023-03-20T04:58:05.617Z,99.15
2023-03-20T04:59:05.628Z,99.19
2023-03-20T05:00:06.471Z,99.19
2023-03-20T05:01:06.676Z,99.30
2023-03-20T05:02:05.626Z,99.30
2023-03-20T05:03:05.509Z,99.30
2023-03-20T05:04:05.577Z,99.44
2023-03-20T05:05:05.639Z,99.55
2023-03-20T05:06:06.462Z,99.65
2023-03-20T05:07:05.508Z,99.65
2023-03-20T05:08:05.468Z,99.76
2023-03-20T05:09:05.464Z,99.86
2023-03-20T05:10:05.461Z,99.90
2023-03-20T05:11:05.491Z,99.80
2023-03-20T05:12:06.591Z,99.90
2023-03-20T05:13:05.377Z,99.90
2023-03-20T05:14:06.442Z,99.90
2023-03-20T05:15:05.479Z,99.99
2023-03-20T05:16:05.518Z,99.90
2023-03-20T05:17:05.375Z,99.95
2023-03-20T05:18:05.325Z,99.99
2023-03-20T05:19:05.336Z,99.99
2023-03-20T05:20:05.316Z,99.99
2023-03-20T05:21:05.344Z,99.99
2023-03-20T05:22:05.312Z,99.99
2023-03-20T05:23:06.409Z,99.99
2023-03-20T05:24:05.236Z,99.99
2023-03-20T05:25:06.402Z,99.99
2023-03-20T05:26:05.265Z,99.99
2023-03-20T05:27:06.198Z,99.99
2023-03-20T05:28:06.081Z,99.99
2023-03-20T05:29:05.240Z,99.99
2023-03-20T05:30:05.178Z,99.99
2023-03-20T05:31:05.215Z,99.99
2023-03-20T05:32:05.135Z,99.99
2023-03-20T05:33:05.266Z,99.99
2023-03-20T05:34:05.111Z,99.99
2023-03-20T05:35:05.210Z,99.99
2023-03-20T05:36:06.500Z,99.99
2023-03-20T05:37:05.176Z,99.90
2023-03-20T05:38:05.756Z,99.80
2023-03-20T05:39:05.136Z,99.70
2023-03-20T05:40:05.155Z,99.60
2023-03-20T05:41:05.084Z,99.49
2023-03-20T05:42:05.042Z,99.39
2023-03-20T05:43:06.188Z,99.29
2023-03-20T05:44:05.010Z,99.18
2023-03-20T05:45:04.996Z,99.18
2023-03-20T05:46:04.996Z,99.18
2023-03-20T05:47:05.014Z,99.29
2023-03-20T05:48:06.099Z,99.14
2023-03-20T05:49:04.947Z,99.14
2023-03-20T05:50:04.990Z,99.14
2023-03-20T05:51:05.014Z,99.04
2023-03-20T05:52:05.894Z,98.88
2023-03-20T05:53:05.233Z,98.79
2023-03-20T05:54:05.390Z,98.68
2023-03-20T05:55:04.841Z,98.68
2023-03-20T05:56:05.373Z,98.58
2023-03-20T05:57:05.465Z,98.53
2023-03-20T05:58:04.814Z,98.33
2023-03-20T05:59:04.909Z,98.12
2023-03-20T06:00:04.852Z,97.81
2023-03-20T06:01:04.765Z,97.45
2023-03-20T06:02:04.773Z,97.36
2023-03-20T06:03:05.028Z,97.25
2023-03-20T06:04:04.839Z,97.25
2023-03-20T06:05:04.717Z,97.15
2023-03-20T06:06:04.774Z,96.73
2023-03-20T06:07:04.743Z,96.33
2023-03-20T06:08:04.696Z,95.97
2023-03-20T06:09:04.757Z,95.77
2023-03-20T06:10:04.735Z,95.87
2023-03-20T06:11:04.667Z,95.87
2023-03-20T06:12:04.639Z,95.56
2023-03-20T06:13:04.609Z,95.67
2023-03-20T06:14:04.619Z,95.77
2023-03-20T06:15:04.736Z,95.62
2023-03-20T06:16:05.128Z,95.62
2023-03-20T06:17:04.698Z,95.62
2023-03-20T06:18:04.661Z,95.62
2023-03-20T06:19:04.554Z,95.62
2023-03-20T06:20:04.591Z,95.31
2023-03-20T06:21:04.576Z,95.06
2023-03-20T06:22:05.500Z,95.27
2023-03-20T06:23:04.659Z,95.17
2023-03-20T06:24:04.507Z,94.65
2023-03-20T06:25:04.738Z,94.55
2023-03-20T06:26:04.493Z,94.65
2023-03-20T06:27:04.542Z,94.40
2023-03-20T06:28:04.468Z,94.40
2023-03-20T06:29:04.486Z,94.51
2023-03-20T06:30:04.408Z,93.79
2023-03-20T06:31:04.610Z,94.10
2023-03-20T06:32:04.395Z,93.79
2023-03-20T06:33:04.459Z,93.68
2023-03-20T06:34:04.378Z,93.99
2023-03-20T06:35:04.637Z,94.20
2023-03-20T06:36:04.372Z,93.59
2023-03-20T06:37:04.462Z,93.89
2023-03-20T06:38:04.388Z,93.89
2023-03-20T06:39:04.309Z,93.48
2023-03-20T06:40:04.253Z,93.79
2023-03-20T06:41:04.275Z,94.40
2023-03-20T06:42:04.474Z,93.89
2023-03-20T06:43:05.027Z,93.52
2023-03-20T06:44:04.216Z,94.30
2023-03-20T06:45:04.303Z,94.71
2023-03-20T06:46:04.394Z,94.71
2023-03-20T06:47:04.171Z,94.40
2023-03-20T06:48:04.172Z,93.99
2023-03-20T06:49:04.148Z,94.20
2023-03-20T06:50:04.211Z,93.48
2023-03-20T06:51:04.749Z,93.64
2023-03-20T06:52:04.112Z,94.05
2023-03-20T06:53:04.104Z,93.44
2023-03-20T06:54:04.081Z,93.13
2023-03-20T06:55:04.171Z,93.13
2023-03-20T06:56:05.049Z,93.13
2023-03-20T06:57:04.189Z,93.13
2023-03-20T06:58:04.067Z,93.54
2023-03-20T06:59:04.041Z,92.72
2023-03-20T07:00:05.552Z,92.82
2023-03-20T07:01:04.823Z,92.72
2023-03-20T07:02:04.048Z,92.61
2023-03-20T07:03:04.095Z,92.31
2023-03-20T07:04:03.995Z,92.10
2023-03-20T07:05:04.018Z,92.21
2023-03-20T07:06:03.956Z,91.90
2023-03-20T07:07:04.762Z,92.41
2023-03-20T07:08:04.093Z,92.82
2023-03-20T07:09:03.957Z,92.21
2023-03-20T07:10:03.958Z,92.00
2023-03-20T07:11:03.856Z,92.27
2023-03-20T07:12:03.850Z,92.68
2023-03-20T07:13:03.970Z,92.27
2023-03-20T07:14:04.303Z,91.96
2023-03-20T07:15:03.863Z,91.86
2023-03-20T07:16:05.247Z,91.14
2023-03-20T07:17:03.850Z,91.55
2023-03-20T07:18:03.790Z,91.03
2023-03-20T07:19:03.810Z,90.62
2023-03-20T07:20:04.434Z,90.93
2023-03-20T07:21:03.891Z,91.03
2023-03-20T07:22:03.783Z,90.93
2023-03-20T07:23:03.852Z,90.83
2023-03-20T07:24:03.756Z,90.62
2023-03-20T07:25:03.677Z,90.62
2023-03-20T07:26:03.742Z,90.83
2023-03-20T07:27:03.678Z,90.89
2023-03-20T07:28:03.718Z,91.14
2023-03-20T07:29:03.831Z,90.52
2023-03-20T07:30:03.803Z,90.62
2023-03-20T07:31:03.741Z,91.03
2023-03-20T07:32:03.635Z,90.62
2023-03-20T07:33:03.638Z,90.83
2023-03-20T07:34:03.759Z,91.35
2023-03-20T07:35:03.709Z,91.14
2023-03-20T07:36:03.629Z,91.30
2023-03-20T07:37:03.656Z,91.50
2023-03-20T07:38:03.561Z,91.40
2023-03-20T07:39:03.604Z,90.48
2023-03-20T07:40:03.529Z,90.99
2023-03-20T07:41:03.498Z,90.37
2023-03-20T07:42:03.662Z,90.89
2023-03-20T07:43:03.456Z,90.48
2023-03-20T07:44:03.461Z,90.89
2023-03-20T07:45:03.490Z,90.99
2023-03-20T07:46:03.922Z,90.48
2023-03-20T07:47:03.426Z,90.79
2023-03-20T07:48:03.432Z,90.37
2023-03-20T07:49:03.372Z,90.34
2023-03-20T07:50:03.367Z,89.92
2023-03-20T07:51:03.446Z,89.83
2023-03-20T07:52:04.541Z,89.42
2023-03-20T07:53:03.331Z,88.65
2023-03-20T07:54:04.055Z,87.94
2023-03-20T07:55:03.288Z,88.71
2023-03-20T07:56:03.294Z,87.90
2023-03-20T07:57:03.321Z,87.59
2023-03-20T07:58:03.881Z,88.06
2023-03-20T07:59:03.255Z,87.04
2023-03-20T08:00:03.294Z,87.24
2023-03-20T08:01:03.235Z,86.57
2023-03-20T08:02:03.214Z,86.98
2023-03-20T08:03:03.390Z,86.46
2023-03-20T08:04:03.290Z,86.77
2023-03-20T08:05:03.165Z,87.38
2023-03-20T08:06:03.186Z,86.98
2023-03-20T08:07:03.154Z,87.18
2023-03-20T08:08:03.135Z,86.98
2023-03-20T08:09:03.150Z,86.88
2023-03-20T08:10:03.775Z,87.45
2023-03-20T08:11:03.165Z,86.73
2023-03-20T08:12:03.208Z,86.02
2023-03-20T08:13:03.245Z,86.46
2023-03-20T08:14:03.035Z,86.46
2023-03-20T08:15:03.060Z,86.73
2023-03-20T08:16:03.932Z,86.67
2023-03-20T08:17:14.527Z,86.43
2023-03-20T08:18:04.023Z,85.81
2023-03-20T08:19:03.114Z,86.12
2023-03-20T08:20:03.034Z,85.91
2023-03-20T08:21:02.961Z,85.61
2023-03-20T08:22:03.016Z,85.71
2023-03-20T08:23:03.816Z,85.50
2023-03-20T08:24:02.995Z,85.50
2023-03-20T08:25:03.476Z,85.81
2023-03-20T08:26:03.900Z,85.10
2023-03-20T08:27:02.959Z,84.58
2023-03-20T08:28:02.913Z,85.50
2023-03-20T08:29:03.028Z,85.20
2023-03-20T08:30:02.919Z,84.79
2023-03-20T08:31:02.924Z,84.58
2023-03-20T08:32:02.941Z,84.58
2023-03-20T08:33:03.321Z,84.28
2023-03-20T08:34:03.280Z,84.48
2023-03-20T08:35:02.804Z,84.69
2023-03-20T08:36:02.870Z,84.69
2023-03-20T08:37:02.811Z,84.07
2023-03-20T08:38:02.865Z,83.05
2023-03-20T08:39:03.612Z,83.46
2023-03-20T08:40:02.718Z,82.95
2023-03-20T08:41:02.732Z,82.75
2023-03-20T08:42:02.707Z,82.75
2023-03-20T08:43:02.700Z,82.34
2023-03-20T08:44:02.768Z,81.93
2023-03-20T08:45:02.761Z,82.13
2023-03-20T08:46:02.714Z,82.03
2023-03-20T08:47:02.622Z,82.64
2023-03-20T08:48:02.862Z,82.43
2023-03-20T08:49:02.658Z,82.34
2023-03-20T08:50:02.643Z,82.75
2023-03-20T08:51:02.601Z,83.05
2023-03-20T08:52:02.591Z,82.34
2023-03-20T08:53:03.318Z,82.43
2023-03-20T08:54:07.857Z,82.75
2023-03-20T08:55:02.525Z,82.23
2023-03-20T08:56:03.490Z,82.17
2023-03-20T08:57:02.547Z,82.27
2023-03-20T08:58:02.511Z,82.68
2023-03-20T08:59:02.477Z,82.48
2023-03-20T09:00:02.454Z,82.48
2023-03-20T09:01:06.478Z,82.48
2023-03-20T09:02:02.565Z,83.50
2023-03-20T09:03:02.501Z,82.78
2023-03-20T09:04:02.664Z,82.57
2023-03-20T09:05:02.422Z,82.37
2023-03-20T09:06:02.397Z,82.37
2023-03-20T09:07:02.353Z,82.89
2023-03-20T09:08:03.348Z,82.48
2023-03-20T09:09:02.482Z,82.78
2023-03-20T09:10:02.406Z,83.29
2023-03-20T09:11:03.111Z,82.37
2023-03-20T09:12:02.311Z,82.57
2023-03-20T09:13:09.534Z,82.54
2023-03-20T09:14:03.307Z,82.03
2023-03-20T09:15:02.323Z,81.86
2023-03-20T09:16:03.283Z,82.23
2023-03-20T09:17:03.034Z,82.43
2023-03-20T09:18:04.001Z,81.93
2023-03-20T09:19:02.210Z,82.03
2023-03-20T09:20:02.534Z,82.27
2023-03-20T09:21:02.253Z,81.93
2023-03-20T09:22:02.205Z,81.76
2023-03-20T09:23:02.319Z,81.56
2023-03-20T09:24:02.213Z,81.96
2023-03-20T09:25:02.136Z,81.93
2023-03-20T09:26:02.279Z,82.03
2023-03-20T09:27:03.674Z,81.51
2023-03-20T09:28:02.101Z,81.51
2023-03-20T09:29:02.094Z,81.51
2023-03-20T09:30:02.551Z,82.13
2023-03-20T09:31:02.121Z,82.03
2023-03-20T09:32:02.064Z,82.09
2023-03-20T09:33:03.081Z,81.27
2023-03-20T09:34:02.037Z,81.51
2023-03-20T09:35:02.038Z,81.62
2023-03-20T09:36:02.148Z,81.51
2023-03-20T09:37:02.007Z,81.31
2023-03-20T09:38:02.023Z,81.51
2023-03-20T09:39:02.981Z,81.96
2023-03-20T09:40:02.038Z,82.27
2023-03-20T09:41:02.806Z,82.78
2023-03-20T09:42:02.143Z,83.15
2023-03-20T09:43:01.895Z,82.68
2023-03-20T09:44:01.914Z,82.84
2023-03-20T09:45:01.871Z,82.75
2023-03-20T09:46:02.841Z,82.95
2023-03-20T09:47:18.429Z,82.48
2023-03-20T09:48:02.847Z,82.78
2023-03-20T09:49:01.818Z,82.71
2023-03-20T09:50:01.800Z,83.13
2023-03-20T09:51:01.875Z,83.84
2023-03-20T09:52:01.961Z,83.44
2023-03-20T09:53:01.773Z,83.44
2023-03-20T09:54:02.552Z,83.33
2023-03-20T09:55:01.912Z,82.98
2023-03-20T09:56:02.750Z,82.78
2023-03-20T09:57:01.903Z,82.89
2023-03-20T09:58:01.764Z,82.48
2023-03-20T09:59:02.589Z,81.56
2023-03-20T10:00:01.731Z,82.00
2023-03-20T10:01:01.671Z,81.90
2023-03-20T10:02:01.679Z,82.07
2023-03-20T10:03:01.708Z,81.45
2023-03-20T10:04:01.673Z,81.45
2023-03-20T10:05:05.808Z,80.53
2023-03-20T10:06:02.431Z,80.94
2023-03-20T10:07:02.915Z,80.53
2023-03-20T10:08:10.664Z,80.19
2023-03-20T10:09:01.674Z,80.08
2023-03-20T10:10:01.591Z,79.37
2023-03-20T10:11:01.564Z,79.57
2023-03-20T10:12:01.766Z,79.47
2023-03-20T10:13:01.562Z,79.74
2023-03-20T10:14:01.745Z,79.84
2023-03-20T10:15:01.482Z,79.13
2023-03-20T10:16:01.559Z,78.61
2023-03-20T10:17:01.489Z,78.52
2023-03-20T10:18:01.447Z,78.52
2023-03-20T10:19:01.496Z,78.75
2023-03-20T10:20:01.470Z,78.82
2023-03-20T10:21:01.400Z,78.72
2023-03-20T10:22:01.435Z,78.82
2023-03-20T10:23:01.386Z,78.31
2023-03-20T10:24:01.408Z,78.00
2023-03-20T10:25:01.347Z,78.11
2023-03-20T10:26:01.446Z,78.55
2023-03-20T10:27:01.546Z,78.55
2023-03-20T10:28:01.334Z,78.86
2023-03-20T10:29:02.278Z,78.24
2023-03-20T10:30:01.436Z,78.14
2023-03-20T10:31:01.296Z,78.55
2023-03-20T10:32:02.730Z,79.27
2023-03-20T10:33:01.326Z,78.75
2023-03-20T10:34:01.251Z,78.55
2023-03-20T10:35:01.263Z,78.65
2023-03-20T10:36:01.347Z,78.69
2023-03-20T10:37:01.191Z,79.82
2023-03-20T10:38:01.299Z,80.08
2023-03-20T10:39:01.190Z,79.47
2023-03-20T10:40:01.238Z,79.33
2023-03-20T10:41:01.174Z,78.27
2023-03-20T10:42:01.642Z,78.17
2023-03-20T10:43:01.154Z,78.03
2023-03-20T10:44:01.141Z,77.52
2023-03-20T10:45:01.112Z,77.31
2023-03-20T10:46:01.104Z,77.11
2023-03-20T10:47:01.147Z,77.22
2023-03-20T10:48:01.112Z,78.03
2023-03-20T10:49:01.042Z,77.62
2023-03-20T10:50:01.076Z,77.01
2023-03-20T10:51:01.072Z,77.93
2023-03-20T10:52:01.016Z,77.52
2023-03-20T10:53:01.456Z,77.18
2023-03-20T10:54:01.925Z,76.29
2023-03-20T10:55:01.095Z,77.11
2023-03-20T10:56:01.759Z,76.90
2023-03-20T10:57:00.967Z,77.72
2023-03-20T10:58:00.926Z,77.93
2023-03-20T10:59:01.000Z,77.48
2023-03-20T11:00:00.903Z,76.87
2023-03-20T11:01:00.975Z,76.93
2023-03-20T11:02:00.917Z,76.06
2023-03-20T11:03:01.700Z,76.16
2023-03-20T11:04:00.943Z,76.19
2023-03-20T11:05:00.871Z,76.19
2023-03-20T11:06:09.326Z,76.50
2023-03-20T11:07:01.965Z,77.01
2023-03-20T11:08:00.830Z,77.01
2023-03-20T11:09:00.828Z,77.28
2023-03-20T11:10:00.770Z,76.36
2023-03-20T11:11:00.834Z,76.77
2023-03-20T11:12:00.755Z,75.61
2023-03-20T11:13:00.748Z,75.61
2023-03-20T11:14:00.717Z,75.37
2023-03-20T11:15:00.704Z,75.13
2023-03-20T11:16:00.987Z,74.11
2023-03-20T11:17:00.774Z,73.81
2023-03-20T11:18:00.792Z,74.38
2023-03-20T11:19:00.676Z,73.67
2023-03-20T11:20:00.658Z,73.33
2023-03-20T11:21:00.625Z,72.31
2023-03-20T11:22:00.624Z,72.01
2023-03-20T11:23:01.696Z,71.80
2023-03-20T11:24:00.944Z,71.39
2023-03-20T11:25:00.601Z,70.68
2023-03-20T11:26:00.934Z,69.76
2023-03-20T11:27:00.560Z,68.54
2023-03-20T11:28:00.669Z,69.39
2023-03-20T11:29:00.592Z,68.68
2023-03-20T11:30:00.525Z,69.63
2023-03-20T11:31:04.800Z,69.93
2023-03-20T11:32:00.580Z,70.24
2023-03-20T11:33:00.559Z,70.00
2023-03-20T11:34:01.340Z,69.80
2023-03-20T11:35:00.683Z,69.70
2023-03-20T11:36:00.518Z,70.28
2023-03-20T11:37:10.074Z,69.76
2023-03-20T11:38:01.406Z,69.93
2023-03-20T11:39:00.389Z,69.23
2023-03-20T11:40:00.378Z,68.31
2023-03-20T11:41:00.699Z,68.98
2023-03-20T11:42:00.395Z,70.51
2023-03-20T11:43:00.417Z,69.90
2023-03-20T11:44:00.362Z,69.49
2023-03-20T11:45:00.415Z,68.65
2023-03-20T11:46:00.773Z,68.65
2023-03-20T11:47:00.309Z,68.54
2023-03-20T11:48:02.023Z,68.57
2023-03-20T11:49:00.311Z,69.15
2023-03-20T11:50:00.459Z,68.71
2023-03-20T11:51:00.298Z,67.93
2023-03-20T11:52:00.217Z,67.96
2023-03-20T11:53:00.269Z,68.88
2023-03-20T11:54:00.409Z,68.78
2023-03-20T11:55:00.206Z,68.68
2023-03-20T11:56:00.274Z,68.17
2023-03-20T11:57:00.171Z,68.37
2023-03-20T11:58:00.160Z,68.17
2023-03-20T11:59:00.123Z,68.07
2023-03-20T12:00:00.156Z,67.46
2023-03-20T12:01:00.134Z,67.46
2023-03-20T12:02:00.257Z,67.25
2023-03-20T12:03:00.097Z,67.79
2023-03-20T12:04:00.234Z,68.44
2023-03-20T12:05:00.165Z,69.05
2023-03-20T12:06:00.659Z,69.02
2023-03-20T12:07:00.015Z,68.30
2023-03-20T12:08:00.016Z,68.71
2023-03-20T12:09:00.048Z,68.13
2023-03-20T12:10:00.029Z,69.53
2023-03-20T12:10:59.996Z,68.81
2023-03-20T12:12:00.250Z,68.40
2023-03-20T12:12:59.970Z,68.71
2023-03-20T12:13:59.958Z,68.40
2023-03-20T12:14:59.959Z,67.79
2023-03-20T12:16:00.038Z,69.15
2023-03-20T12:16:59.933Z,68.16
2023-03-20T12:17:59.914Z,68.47
2023-03-20T12:18:59.934Z,68.95
2023-03-20T12:19:59.907Z,68.71
2023-03-20T12:20:59.841Z,68.48
2023-03-20T12:21:59.841Z,68.24
2023-03-20T12:22:59.814Z,66.82
2023-03-20T12:23:59.872Z,67.12
2023-03-20T12:24:59.873Z,66.38
2023-03-20T12:25:59.989Z,65.77
2023-03-20T12:26:59.850Z,65.86
2023-03-20T12:27:59.981Z,64.57
2023-03-20T12:28:59.747Z,65.08
2023-03-20T12:29:59.786Z,64.64
2023-03-20T12:30:59.763Z,63.96
2023-03-20T12:31:59.953Z,63.76
2023-03-20T12:32:59.831Z,63.96
2023-03-20T12:33:59.754Z,63.45
2023-03-20T12:34:59.683Z,63.96
2023-03-20T12:35:59.995Z,64.67
2023-03-20T12:36:59.664Z,62.77
2023-03-20T12:37:59.646Z,63.92
2023-03-20T12:38:59.686Z,65.14
2023-03-20T12:39:59.698Z,65.14
2023-03-20T12:40:59.664Z,65.55
2023-03-20T12:41:59.651Z,64.81
2023-03-20T12:42:59.598Z,64.02
2023-03-20T12:43:59.538Z,64.87
2023-03-20T12:44:59.560Z,65.65
2023-03-20T12:45:59.564Z,65.31
2023-03-20T12:46:59.531Z,64.78
2023-03-20T12:47:59.530Z,63.45
2023-03-20T12:48:59.513Z,63.18
2023-03-20T12:49:59.508Z,63.48
2023-03-20T12:50:59.491Z,63.07
2023-03-20T12:51:59.542Z,63.38